Time;durP1;ratioP1;P1;durP2;ratioP2;P2;SDS_P1;SDS_P2;PMS_P1;PMS_P2;Temp;Humidity;BMP_temperature;BMP_pressure;BME280_temperature;BME280_humidity;BME280_pressure;Samples;Min_cycle;Max_cycle;Signal;HPM_P1;HPM_P2
2023/08/02 00:01:47;;;;;;;1.52;0.40;;;;;;;15.40;87.36;100126.75;7397997;19;19935;-75
2023/08/02 00:04:16;;;;;;;4.90;0.70;;;;;;;15.39;87.27;100121.56;7398430;19;19922;-75
2023/08/02 00:06:45;;;;;;;1.48;0.60;;;;;;;15.38;87.04;100120.72;7396703;19;19922;-74
2023/08/02 00:09:13;;;;;;;1.00;0.90;;;;;;;15.39;86.94;100125.09;7397027;19;19922;-75
2023/08/02 00:11:42;;;;;;;1.23;0.90;;;;;;;15.41;87.02;100124.84;7394626;19;19957;-75
2023/08/02 00:14:11;;;;;;;1.13;0.60;;;;;;;15.41;87.40;100124.84;7397666;19;19926;-74
2023/08/02 00:16:42;;;;;;;1.65;0.68;;;;;;;15.42;87.35;100119.22;7396652;19;20389;-75
2023/08/02 00:19:08;;;;;;;3.28;0.70;;;;;;;15.41;87.13;100122.97;7397068;19;19947;-74
2023/08/02 00:21:36;;;;;;;;;;;;;;;15.28;88.25;100119.56;7399261;19;19933;-75
2023/08/02 00:24:05;;;;;;;2.40;0.95;;;;;;;15.40;87.32;100115.09;7398061;19;19930;-76
2023/08/02 00:26:34;;;;;;;3.88;0.88;;;;;;;15.44;87.24;100111.66;7397606;19;19943;-75
2023/08/02 00:29:02;;;;;;;3.75;0.90;;;;;;;15.44;87.09;100111.66;7396607;19;19952;-74
2023/08/02 00:31:31;;;;;;;1.58;0.85;;;;;;;15.43;86.99;100110.03;7395943;19;19939;-75
2023/08/02 00:34:02;;;;;;;2.28;0.82;;;;;;;15.43;86.82;100107.31;7396747;19;20391;-75
2023/08/02 00:36:31;;;;;;;4.68;1.08;;;;;;;15.43;86.56;100096.44;7397559;19;19914;-75
2023/08/02 00:39:00;;;;;;;3.38;0.70;;;;;;;15.44;86.90;100097.28;7396708;19;19937;-75
2023/08/02 00:41:28;;;;;;;2.45;0.90;;;;;;;15.44;86.72;100108.94;7397181;19;19933;-75
2023/08/02 00:43:57;;;;;;;1.30;0.82;;;;;;;15.45;86.41;100107.06;7396228;19;19922;-75
2023/08/02 00:46:25;;;;;;;3.03;0.88;;;;;;;15.43;86.23;100110.03;7395431;19;19919;-74
2023/08/02 00:48:54;;;;;;;1.75;0.55;;;;;;;15.43;86.53;100110.03;7395281;19;19919;-76
2023/08/02 00:51:30;;;;;;;2.30;0.70;;;;;;;15.45;87.06;100105.19;7398482;19;19926;-75
2023/08/02 00:54:02;;;;;;;2.78;0.70;;;;;;;15.49;86.74;100105.56;7396751;19;19919;-76
2023/08/02 00:56:31;;;;;;;1.02;0.52;;;;;;;15.52;86.85;100110.56;7396682;19;19926;-76
2023/08/02 00:59:01;;;;;;;1.15;0.60;;;;;;;15.55;86.67;100112.00;7396109;19;19955;-76
2023/08/02 01:01:29;;;;;;;1.00;0.60;;;;;;;15.54;86.69;100113.03;7396872;19;19943;-75
2023/08/02 01:03:59;;;;;;;2.28;0.60;;;;;;;15.54;87.02;100107.63;7395971;19;20452;-75
2023/08/02 01:06:37;;;;;;;2.63;0.90;;;;;;;15.50;87.30;100109.97;7396594;19;19930;-76
2023/08/02 01:09:09;;;;;;;4.60;1.73;;;;;;;15.50;87.13;100098.25;7393867;19;19951;-76
2023/08/02 01:11:44;;;;;;;4.25;1.23;;;;;;;15.51;87.14;100099.94;7395687;19;19922;-76
2023/08/02 01:14:17;;;;;;;2.35;1.00;;;;;;;15.50;87.20;100092.81;7394838;19;19922;-76
2023/08/02 01:16:48;;;;;;;2.35;0.70;;;;;;;15.51;86.97;100100.78;7396484;19;20272;-76
2023/08/02 01:19:22;;;;;;;6.78;1.13;;;;;;;15.51;87.14;100083.66;7394880;19;19960;-76
2023/08/02 01:21:53;;;;;;;2.80;0.93;;;;;;;15.51;87.52;100081.75;7395531;19;19923;-76
2023/08/02 01:24:21;;;;;;;3.10;1.27;;;;;;;15.51;87.30;100087.19;7394564;19;19926;-76
2023/08/02 01:26:50;;;;;;;4.32;1.00;;;;;;;15.52;87.13;100090.75;7394850;19;20022;-76
2023/08/02 01:29:22;;;;;;;1.40;0.90;;;;;;;15.53;87.64;100095.13;7394013;19;19947;-75
2023/08/02 01:31:51;;;;;;;;;;;;;;;15.34;88.98;100092.38;7398577;19;19922;-76
2023/08/02 01:34:21;;;;;;;3.40;1.60;;;;;;;15.45;87.75;100078.03;7395788;19;20405;-76
2023/08/02 01:36:53;;;;;;;5.78;1.45;;;;;;;15.49;88.06;100080.31;7398779;19;19931;-76
2023/08/02 01:39:21;;;;;;;6.05;1.80;;;;;;;15.50;87.50;100084.66;7394078;19;19933;-75
2023/08/02 01:41:50;;;;;;;3.22;1.50;;;;;;;15.48;87.97;100086.78;7395499;19;19926;-76
2023/08/02 01:44:19;;;;;;;5.40;1.58;;;;;;;15.47;87.84;100087.84;7397529;19;20294;-75
2023/08/02 01:46:47;;;;;;;6.07;1.90;;;;;;;15.45;88.04;100069.88;7399142;19;19918;-76
2023/08/02 01:49:19;;;;;;;3.88;1.95;;;;;;;15.43;88.27;100080.16;7399136;19;19926;-76
2023/08/02 01:51:48;;;;;;;4.35;1.52;;;;;;;15.39;88.32;100076.25;7401183;19;19914;-75
2023/08/02 01:54:19;;;;;;;4.13;2.00;;;;;;;15.39;88.38;100078.97;7401843;19;20029;-75
2023/08/02 01:56:48;;;;;;;4.60;1.88;;;;;;;15.37;88.03;100072.91;7400447;19;19986;-76
2023/08/02 01:59:16;;;;;;;4.80;1.85;;;;;;;15.37;88.25;100072.09;7401584;19;19986;-76
2023/08/02 02:01:45;;;;;;;5.55;2.45;;;;;;;15.36;88.10;100065.81;7400580;19;19933;-76
2023/08/02 02:04:14;;;;;;;4.57;2.45;;;;;;;15.34;88.36;100059.81;7401320;19;19922;-76
2023/08/02 02:06:42;;;;;;;4.97;2.42;;;;;;;15.35;88.29;100057.94;7399831;19;19935;-75
2023/08/02 02:09:11;;;;;;;3.78;2.03;;;;;;;15.36;88.52;100048.72;7400331;19;19926;-76
2023/08/02 02:11:42;;;;;;;3.72;1.80;;;;;;;15.36;88.25;100041.41;7399446;19;19918;-76
2023/08/02 02:14:11;;;;;;;4.72;1.90;;;;;;;15.37;88.07;100037.63;7401852;19;19922;-76
2023/08/02 02:16:40;;;;;;;5.45;1.95;;;;;;;15.38;88.11;100042.00;7399764;19;19930;-76
2023/08/02 02:19:08;;;;;;;3.95;2.17;;;;;;;15.38;87.83;100039.31;7401528;19;20283;-75
2023/08/02 02:21:37;;;;;;;7.82;1.80;;;;;;;15.39;88.26;100038.25;7400954;19;20295;-75
2023/08/02 02:24:06;;;;;;;6.63;2.38;;;;;;;15.36;88.23;100033.25;7400479;19;19949;-75
2023/08/02 02:26:36;;;;;;;7.00;2.40;;;;;;;15.36;88.18;100027.00;7400871;19;20548;-76
2023/08/02 02:29:07;;;;;;;7.32;2.10;;;;;;;15.36;88.11;100029.72;7399505;19;20730;-76
2023/08/02 02:31:36;;;;;;;6.43;2.22;;;;;;;15.36;88.17;100024.28;7400751;19;19922;-76
2023/08/02 02:34:02;;;;;;;5.82;2.00;;;;;;;15.35;88.20;100018.06;7399621;19;20572;-75
2023/08/02 02:36:31;;;;;;;6.07;2.30;;;;;;;15.35;88.06;100017.22;7400334;19;19953;-75
2023/08/02 02:38:59;;;;;;;4.68;1.80;;;;;;;15.35;87.98;100009.91;7399346;19;19919;-76
2023/08/02 02:41:28;;;;;;;7.25;2.10;;;;;;;15.34;88.10;100012.84;7400128;19;20361;-76
2023/08/02 02:43:56;;;;;;;8.23;2.20;;;;;;;15.34;88.24;100010.13;7399873;19;20378;-76
2023/08/02 02:46:28;;;;;;;5.15;1.90;;;;;;;15.34;88.37;100002.00;7399248;19;19926;-77
2023/08/02 02:48:56;;;;;;;6.63;1.80;;;;;;;15.34;88.47;100002.00;7399795;19;19956;-76
2023/08/02 02:51:25;;;;;;;4.50;2.05;;;;;;;15.35;88.18;99987.38;7400180;19;19982;-76
2023/08/02 02:53:54;;;;;;;7.07;1.88;;;;;;;15.36;88.21;99991.72;7400491;19;20097;-76
2023/08/02 02:56:23;;;;;;;4.68;1.95;;;;;;;15.35;88.12;99982.78;7399007;19;20282;-76
2023/08/02 02:58:51;;;;;;;6.57;2.20;;;;;;;15.36;88.06;99984.41;7399939;19;19926;-76
2023/08/02 03:01:21;;;;;;;7.80;2.10;;;;;;;15.37;88.12;99980.66;7399400;19;20357;-76
2023/08/02 03:03:52;;;;;;;7.10;1.67;;;;;;;15.39;88.36;99975.81;7399826;19;20249;-76
2023/08/02 03:06:21;;;;;;;4.32;1.90;;;;;;;15.42;88.13;99975.34;7398865;19;19923;-76
2023/08/02 03:08:49;;;;;;;4.68;1.90;;;;;;;15.44;88.10;99965.09;7399987;19;20286;-75
2023/08/02 03:11:18;;;;;;;7.57;2.22;;;;;;;15.44;88.38;99962.38;7396859;19;19926;-75
2023/08/02 03:13:46;;;;;;;5.22;1.73;;;;;;;15.44;87.96;99954.22;7400413;19;20280;-76
2023/08/02 03:16:15;;;;;;;3.67;1.83;;;;;;;15.40;87.86;99957.66;7399399;19;19935;-77
2023/08/02 03:18:43;;;;;;;10.80;2.10;;;;;;;15.37;87.89;99966.25;7399872;19;19918;-75
2023/08/02 03:21:15;;;;;;;3.97;2.00;;;;;;;15.36;88.29;99970.84;7400584;19;19933;-75
2023/08/02 03:23:44;;;;;;;8.98;2.15;;;;;;;15.34;88.00;99959.41;7400025;19;22018;-76
2023/08/02 03:26:13;;;;;;;4.30;2.03;;;;;;;15.35;88.29;99958.34;7400116;19;19986;-76
2023/08/02 03:28:41;;;;;;;4.65;1.75;;;;;;;15.35;87.97;99952.91;7398926;19;20353;-76
2023/08/02 03:31:10;;;;;;;9.38;2.33;;;;;;;15.34;88.49;99945.00;7399204;19;20518;-75
2023/08/02 03:33:38;;;;;;;3.78;2.00;;;;;;;15.35;88.24;99949.38;7398830;19;19954;-75
2023/08/02 03:36:08;;;;;;;7.70;2.10;;;;;;;15.37;88.09;99939.94;7399477;19;19926;-76
2023/08/02 03:38:39;;;;;;;6.85;2.08;;;;;;;15.36;88.05;99937.44;7399097;19;19926;-76
2023/08/02 03:41:08;;;;;;;8.43;2.28;;;;;;;15.35;88.23;99931.22;7399892;19;19947;-76
2023/08/02 03:43:37;;;;;;;4.90;2.20;;;;;;;15.33;88.13;99922.47;7398531;19;19926;-76
2023/08/02 03:46:06;;;;;;;8.00;2.10;;;;;;;15.32;88.25;99920.78;7398695;19;20119;-76
2023/08/02 03:48:34;;;;;;;4.82;2.28;;;;;;;15.30;88.46;99913.97;7398674;19;19926;-76
2023/08/02 03:51:03;;;;;;;5.13;1.80;;;;;;;15.29;88.31;99909.56;7397397;19;19926;-76
2023/08/02 03:53:33;;;;;;;8.25;2.17;;;;;;;15.30;88.58;99913.97;7398558;19;19926;-76
2023/08/02 03:56:05;;;;;;;7.60;2.75;;;;;;;15.27;88.46;99917.94;7399310;19;19922;-76
2023/08/02 03:58:33;;;;;;;7.32;2.28;;;;;;;15.25;88.53;99917.34;7397880;19;20360;-76
2023/08/02 04:01:02;;;;;;;9.60;2.72;;;;;;;15.25;88.11;99909.22;7397475;19;19954;-75
2023/08/02 04:03:30;;;;;;;9.20;2.60;;;;;;;15.26;88.28;99905.47;7398962;19;20543;-75
2023/08/02 04:05:59;;;;;;;5.13;2.13;;;;;;;15.30;88.21;99908.53;7397342;19;20299;-76
2023/08/02 04:08:28;;;;;;;6.10;2.60;;;;;;;15.32;88.39;99901.81;7398130;19;19922;-75
2023/08/02 04:10:56;;;;;;;11.85;2.70;;;;;;;15.32;88.39;99899.09;7395681;19;20492;-75
2023/08/02 04:13:27;;;;;;;9.73;2.90;;;;;;;15.34;88.25;99910.56;7398628;19;20409;-75
2023/08/02 04:15:56;;;;;;;12.20;2.65;;;;;;;15.34;88.48;99910.56;7396366;19;20309;-75
2023/08/02 04:18:25;;;;;;;7.43;2.42;;;;;;;15.32;88.21;99914.53;7398455;19;19922;-75
2023/08/02 04:20:53;;;;;;;9.05;2.85;;;;;;;15.30;88.24;99906.66;7397361;19;19922;-75
2023/08/02 04:23:22;;;;;;;8.48;2.63;;;;;;;15.28;88.38;99906.03;7398611;19;19927;-75
2023/08/02 04:25:50;;;;;;;9.27;2.75;;;;;;;15.24;88.13;99904.84;7398059;19;19929;-75
2023/08/02 04:28:19;;;;;;;10.63;3.20;;;;;;;15.23;88.52;99899.66;7395899;19;19918;-75
2023/08/02 04:30:54;;;;;;;10.20;3.05;;;;;;;15.20;88.38;99898.22;7396692;19;19926;-75
2023/08/02 04:33:23;;;;;;;7.88;2.85;;;;;;;15.20;88.04;99895.50;7397548;19;19988;-75
2023/08/02 04:35:51;;;;;;;14.27;2.70;;;;;;;15.20;88.46;99889.25;7397463;19;19943;-75
2023/08/02 04:38:20;;;;;;;7.53;2.90;;;;;;;15.19;87.82;99882.16;7396455;19;19939;-76
2023/08/02 04:40:48;;;;;;;6.05;2.65;;;;;;;15.16;87.70;99871.78;7398007;19;19919;-75
2023/08/02 04:43:17;;;;;;;9.55;3.15;;;;;;;15.16;87.94;99878.03;7396054;19;19927;-75
2023/08/02 04:45:46;;;;;;;12.00;3.47;;;;;;;15.15;87.32;99875.56;7395701;19;19926;-76
2023/08/02 04:48:17;;;;;;;10.52;2.88;;;;;;;15.15;87.22;99873.66;7395869;19;19948;-75
2023/08/02 04:50:46;;;;;;;9.23;3.10;;;;;;;15.13;87.38;99872.25;7396460;19;20556;-76
2023/08/02 04:53:14;;;;;;;10.90;3.30;;;;;;;15.15;87.21;99865.53;7395137;19;20571;-75
2023/08/02 04:55:44;;;;;;;11.88;4.50;;;;;;;15.17;86.95;99859.88;7397199;19;19951;-75
2023/08/02 04:58:14;;;;;;;10.45;3.50;;;;;;;15.14;86.95;99855.75;7396405;19;20024;-75
2023/08/02 05:00:43;;;;;;;10.18;3.40;;;;;;;15.12;86.84;99852.44;7396678;19;19926;-75
2023/08/02 05:03:11;;;;;;;7.72;3.88;;;;;;;15.11;86.95;99849.94;7396809;19;19923;-75
2023/08/02 05:05:42;;;;;;;6.18;3.33;;;;;;;15.13;86.76;99851.38;7396174;19;19951;-75
2023/08/02 05:08:11;;;;;;;9.38;3.22;;;;;;;15.13;87.13;99847.84;7396535;19;19922;-76
2023/08/02 05:10:40;;;;;;;10.73;4.07;;;;;;;15.11;87.08;99853.47;7393683;19;19943;-75
2023/08/02 05:13:09;;;;;;;9.30;2.80;;;;;;;15.11;86.66;99844.53;7396042;19;20254;-77
2023/08/02 05:15:38;;;;;;;10.40;3.42;;;;;;;15.10;86.76;99846.41;7395263;19;19926;-76
2023/08/02 05:18:07;;;;;;;9.90;3.47;;;;;;;15.11;87.09;99839.91;7398227;19;19982;-76
2023/08/02 05:20:36;;;;;;;8.55;2.85;;;;;;;15.14;87.30;99828.63;7401742;19;19950;-76
2023/08/02 05:23:07;;;;;;;5.20;3.10;;;;;;;15.15;86.84;99824.00;7403084;19;20023;-76
2023/08/02 05:25:37;;;;;;;7.75;3.30;;;;;;;15.15;86.81;99824.84;7400961;19;19939;-76
2023/08/02 05:28:06;;;;;;;8.68;3.10;;;;;;;15.13;87.13;99810.69;7400756;19;19922;-76
2023/08/02 05:30:35;;;;;;;5.88;2.90;;;;;;;15.15;86.59;99808.56;7400785;19;20385;-76
2023/08/02 05:33:06;;;;;;;10.35;3.25;;;;;;;15.15;86.98;99810.44;7402564;19;19926;-76
2023/08/02 05:35:35;;;;;;;10.25;3.20;;;;;;;15.15;86.76;99810.44;7401858;19;19918;-76
2023/08/02 05:38:06;;;;;;;8.05;3.13;;;;;;;15.13;86.57;99807.97;7402712;19;20365;-77
2023/08/02 05:40:35;;;;;;;6.88;2.70;;;;;;;15.09;86.92;99804.06;7402485;19;19939;-76
2023/08/02 05:43:04;;;;;;;9.93;3.20;;;;;;;15.11;86.76;99796.53;7400989;19;19922;-76
2023/08/02 05:45:33;;;;;;;11.65;3.80;;;;;;;15.11;86.87;99780.25;7400410;19;19939;-76
2023/08/02 05:48:01;;;;;;;7.97;3.50;;;;;;;15.17;86.73;99773.06;7401480;19;20661;-76
2023/08/02 05:50:31;;;;;;;8.75;3.70;;;;;;;15.21;86.45;99766.94;7400526;19;19947;-76
2023/08/02 05:53:00;;;;;;;10.73;3.92;;;;;;;15.25;86.61;99761.88;7400828;19;19918;-77
2023/08/02 05:55:31;;;;;;;7.57;3.30;;;;;;;15.30;86.21;99765.53;7401196;19;19919;-76
2023/08/02 05:57:59;;;;;;;6.13;2.78;;;;;;;15.37;86.24;99765.41;7400619;19;20337;-76
2023/08/02 06:00:29;;;;;;;7.38;3.35;;;;;;;15.45;86.04;99754.19;7401069;19;19943;-76
2023/08/02 06:02:57;;;;;;;8.43;3.20;;;;;;;15.47;86.15;99749.38;7400365;19;19926;-76
2023/08/02 06:05:26;;;;;;;7.55;3.10;;;;;;;15.51;85.97;99756.03;7401946;19;19930;-76
2023/08/02 06:07:55;;;;;;;6.63;3.72;;;;;;;15.52;86.02;99738.69;7400631;19;19923;-76
2023/08/02 06:10:23;;;;;;;10.73;4.20;;;;;;;15.56;85.89;99736.31;7401362;19;20482;-76
2023/08/02 06:12:55;;;;;;;9.57;3.95;;;;;;;15.59;85.51;99733.94;7401537;19;19925;-76
2023/08/02 06:15:23;;;;;;;8.80;3.42;;;;;;;15.66;85.84;99733.84;7401467;19;19918;-76
2023/08/02 06:17:52;;;;;;;6.95;3.13;;;;;;;15.71;85.36;99726.59;7401150;19;19922;-76
2023/08/02 06:20:21;;;;;;;6.40;3.13;;;;;;;15.80;85.13;99727.06;7400854;19;19927;-76
2023/08/02 06:22:49;;;;;;;9.52;3.25;;;;;;;15.89;85.26;99718.31;7401107;19;19922;-76
2023/08/02 06:25:18;;;;;;;12.45;3.42;;;;;;;16.01;85.19;99712.84;7400322;19;19926;-76
2023/08/02 06:27:47;;;;;;;5.90;2.47;;;;;;;16.11;85.01;99707.63;7399217;19;19938;-76
2023/08/02 06:30:18;;;;;;;7.38;2.70;;;;;;;16.17;84.87;99711.28;7399095;19;19942;-76
2023/08/02 06:32:47;;;;;;;6.72;3.40;;;;;;;16.22;84.06;99708.66;7402755;19;20377;-76
2023/08/02 06:35:16;;;;;;;9.60;3.00;;;;;;;16.24;84.46;99710.06;7404081;19;20257;-76
2023/08/02 06:37:44;;;;;;;8.95;3.25;;;;;;;16.27;84.21;99709.56;7407752;19;19923;-75
2023/08/02 06:40:14;;;;;;;6.47;2.92;;;;;;;16.28;84.24;99703.06;7404506;19;19923;-75
2023/08/02 06:42:43;;;;;;;9.20;3.38;;;;;;;16.32;83.77;99703.41;7403029;19;19921;-76
2023/08/02 06:45:12;;;;;;;6.40;3.05;;;;;;;16.37;84.05;99698.06;7400868;19;19926;-76
2023/08/02 06:47:43;;;;;;;7.97;3.55;;;;;;;16.41;83.54;99699.22;7400365;19;19918;-76
2023/08/02 06:50:12;;;;;;;8.18;3.80;;;;;;;16.44;83.62;99698.75;7400021;19;19922;-76
2023/08/02 06:52:41;;;;;;;9.65;2.92;;;;;;;16.46;83.76;99690.34;7400584;19;20590;-76
2023/08/02 06:55:10;;;;;;;7.72;2.65;;;;;;;16.46;83.29;99685.75;7399751;19;19957;-75
2023/08/02 06:57:39;;;;;;;5.03;3.42;;;;;;;16.48;83.47;99683.59;7399825;19;19914;-75
2023/08/02 07:00:10;;;;;;;7.35;2.90;;;;;;;16.51;83.90;99687.72;7400479;19;19926;-75
2023/08/02 07:02:39;;;;;;;10.48;3.25;;;;;;;16.55;83.57;99683.44;7399447;19;19926;-75
2023/08/02 07:05:11;;;;;;;6.78;2.90;;;;;;;16.60;83.02;99670.81;7399957;19;19923;-75
2023/08/02 07:07:39;;;;;;;6.13;3.00;;;;;;;16.66;83.31;99672.53;7399815;19;19929;-75
2023/08/02 07:10:08;;;;;;;8.10;3.78;;;;;;;16.70;82.97;99664.69;7400270;19;19937;-75
2023/08/02 07:12:37;;;;;;;8.93;2.97;;;;;;;16.67;82.80;99659.75;7396369;19;19919;-75
2023/08/02 07:15:07;;;;;;;9.15;3.00;;;;;;;16.65;82.99;99667.34;7400721;19;19974;-75
2023/08/02 07:17:35;;;;;;;6.05;3.17;;;;;;;16.61;82.93;99656.13;7398334;19;19937;-75
2023/08/02 07:20:04;;;;;;;9.90;3.17;;;;;;;16.65;83.27;99656.47;7398814;19;19922;-75
2023/08/02 07:22:36;;;;;;;9.43;3.40;;;;;;;16.70;82.98;99665.53;7397564;19;19926;-75
2023/08/02 07:25:04;;;;;;;9.07;3.67;;;;;;;16.74;82.68;99654.97;7400548;19;19914;-75
2023/08/02 07:27:33;;;;;;;10.98;2.80;;;;;;;16.76;82.53;99652.84;7397801;19;19942;-74
2023/08/02 07:30:02;;;;;;;8.05;2.83;;;;;;;16.82;82.61;99649.16;7400139;19;20710;-75
2023/08/02 07:32:33;;;;;;;6.78;2.75;;;;;;;16.87;82.47;99637.53;7397323;19;20353;-75
2023/08/02 07:35:02;;;;;;;7.00;2.85;;;;;;;16.93;81.86;99636.53;7399335;19;19922;-74
2023/08/02 07:37:31;;;;;;;6.85;3.10;;;;;;;16.95;82.05;99618.88;7399023;19;19943;-75
2023/08/02 07:40:03;;;;;;;8.75;2.97;;;;;;;16.98;81.61;99621.09;7398340;19;19923;-75
2023/08/02 07:42:31;;;;;;;6.07;2.50;;;;;;;17.02;82.14;99624.16;7396231;19;19945;-75
2023/08/02 07:45:05;;;;;;;8.27;3.00;;;;;;;17.09;81.41;99617.44;7397224;19;19919;-75
2023/08/02 07:47:34;;;;;;;7.60;2.90;;;;;;;17.16;81.00;99620.00;7398739;19;19993;-75
2023/08/02 07:50:03;;;;;;;11.82;2.45;;;;;;;17.21;80.80;99612.72;7398206;19;19926;-75
2023/08/02 07:52:32;;;;;;;5.43;2.53;;;;;;;17.24;80.82;99600.53;7397301;19;19925;-75
2023/08/02 07:55:03;;;;;;;6.05;1.95;;;;;;;17.29;81.03;99602.50;7397754;19;19919;-75
2023/08/02 07:57:34;;;;;;;5.57;2.20;;;;;;;17.33;80.70;99606.34;7398519;19;19919;-76
2023/08/02 08:00:03;;;;;;;6.18;2.75;;;;;;;17.33;80.13;99607.19;7397876;19;19920;-76
2023/08/02 08:02:32;;;;;;;5.88;2.35;;;;;;;17.32;80.21;99594.63;7397965;19;19918;-74
2023/08/02 08:05:01;;;;;;;4.47;1.98;;;;;;;17.26;79.24;99592.91;7397039;19;20268;-75
2023/08/02 08:07:30;;;;;;;5.45;2.08;;;;;;;17.22;78.49;99587.16;7398973;19;19919;-75
2023/08/02 08:09:58;;;;;;;8.55;2.10;;;;;;;17.19;79.18;99578.69;7397065;19;19923;-75
2023/08/02 08:12:30;;;;;;;8.07;1.92;;;;;;;17.17;79.39;99578.91;7396986;19;19927;-75
2023/08/02 08:14:58;;;;;;;5.18;2.10;;;;;;;17.17;80.15;99572.69;7397011;19;19924;-76
2023/08/02 08:17:27;;;;;;;6.22;2.60;;;;;;;17.13;79.92;99566.88;7398759;19;19919;-75
2023/08/02 08:19:56;;;;;;;6.18;2.60;;;;;;;17.13;79.91;99561.44;7397278;19;19963;-76
2023/08/02 08:22:28;;;;;;;5.40;2.60;;;;;;;17.09;80.25;99546.69;7397506;19;19940;-75
2023/08/02 08:24:57;;;;;;;6.10;2.50;;;;;;;17.03;80.33;99544.16;7397263;19;20320;-75
2023/08/02 08:27:26;;;;;;;7.18;3.00;;;;;;;16.95;80.42;99534.56;7396898;19;19926;-75
2023/08/02 08:29:58;;;;;;;6.30;3.30;;;;;;;16.90;80.17;99520.88;7397495;19;19934;-75
2023/08/02 08:32:27;;;;;;;9.00;3.33;;;;;;;16.86;80.34;99508.03;7396405;19;20030;-75
2023/08/02 08:34:57;;;;;;;6.00;3.72;;;;;;;16.81;80.75;99502.50;7397438;19;19922;-75
2023/08/02 08:37:26;;;;;;;6.63;3.03;;;;;;;16.74;80.93;99506.22;7396150;19;19922;-75
2023/08/02 08:39:55;;;;;;;7.07;3.58;;;;;;;16.72;81.85;99510.28;7397107;19;19930;-75
2023/08/02 08:42:24;;;;;;;8.63;2.88;;;;;;;16.65;81.97;99515.06;7395815;19;20283;-75
2023/08/02 08:44:56;;;;;;;4.85;2.55;;;;;;;16.61;82.01;99505.78;7396513;19;19934;-75
2023/08/02 08:47:30;;;;;;;8.40;3.17;;;;;;;16.54;83.30;99488.75;7395544;19;19926;-75
2023/08/02 08:50:04;;;;;;;7.78;3.08;;;;;;;16.46;82.91;99479.13;7396662;19;19934;-74
2023/08/02 08:52:36;;;;;;;14.18;4.53;;;;;;;16.38;83.63;99482.28;7394551;19;19937;-75
2023/08/02 08:55:10;;;;;;;6.57;2.95;;;;;;;16.30;83.81;99478.09;7403607;19;19925;-75
2023/08/02 08:57:39;;;;;;;6.45;2.42;;;;;;;16.23;84.02;99471.97;7403083;19;20292;-75
2023/08/02 09:00:09;;;;;;;5.10;3.10;;;;;;;16.19;84.24;99473.53;7403364;19;20007;-75
2023/08/02 09:02:41;;;;;;;8.43;2.78;;;;;;;16.15;84.25;99477.00;7402055;19;19930;-76
2023/08/02 09:05:11;;;;;;;8.30;2.90;;;;;;;16.10;84.70;99464.16;7402387;19;19918;-76
2023/08/02 09:07:40;;;;;;;6.70;2.15;;;;;;;16.06;84.98;99451.31;7401876;19;19968;-75
2023/08/02 09:10:10;;;;;;;4.72;2.25;;;;;;;16.02;85.41;99444.72;7403157;19;19933;-76
2023/08/02 09:12:46;;;;;;;6.80;2.90;;;;;;;15.97;84.90;99445.47;7399763;19;19926;-76
2023/08/02 09:15:17;;;;;;;5.50;2.22;;;;;;;15.95;85.56;99436.75;7403422;19;19961;-76
2023/08/02 09:17:51;;;;;;;9.02;3.05;;;;;;;15.91;85.85;99440.22;7401610;19;19951;-76
2023/08/02 09:20:22;;;;;;;5.22;2.75;;;;;;;15.90;85.77;99433.97;7403504;19;20340;-77
2023/08/02 09:22:51;;;;;;;3.30;2.53;;;;;;;15.93;86.01;99430.75;7402650;19;20264;-77
2023/08/02 09:25:25;;;;;;;7.93;2.63;;;;;;;15.97;86.14;99434.59;7403493;19;19918;-77
2023/08/02 09:27:55;;;;;;;3.90;2.30;;;;;;;16.03;85.85;99439.06;7401043;19;19949;-76
2023/08/02 09:30:32;;;;;;;6.68;2.75;;;;;;;16.04;86.16;99435.28;7403285;19;19919;-77
2023/08/02 09:33:05;;;;;;;7.10;2.40;;;;;;;16.10;86.36;99437.00;7401231;19;19921;-77
2023/08/02 09:35:36;;;;;;;6.80;2.80;;;;;;;16.11;85.97;99444.06;7401812;19;20371;-76
2023/08/02 09:38:11;;;;;;;6.40;2.40;;;;;;;16.07;86.48;99423.09;7402647;19;19919;-76
2023/08/02 09:40:41;;;;;;;7.95;2.85;;;;;;;16.13;86.66;99419.38;7400879;19;19951;-76
2023/08/02 09:43:13;;;;;;;5.60;2.38;;;;;;;16.18;86.35;99395.03;7401974;19;20779;-77
2023/08/02 09:45:42;;;;;;;7.05;2.88;;;;;;;16.21;86.38;99372.78;7399872;19;19925;-77
2023/08/02 09:48:14;;;;;;;5.88;2.80;;;;;;;16.25;86.45;99372.03;7402276;19;20527;-77
2023/08/02 09:51:03;;;;;;;6.82;2.83;;;;;;;16.17;86.84;99396.09;7401854;19;20368;-77
2023/08/02 09:53:33;;;;;;;6.85;2.67;;;;;;;16.20;86.09;99387.41;7398536;19;19925;-77
2023/08/02 09:56:04;;;;;;;7.68;3.13;;;;;;;16.18;86.62;99371.34;7400602;19;19918;-76
2023/08/02 09:58:41;;;;;;;5.97;2.80;;;;;;;16.23;87.10;99357.03;7401700;19;19948;-77
2023/08/02 10:01:10;;;;;;;6.25;2.75;;;;;;;16.30;86.29;99357.69;7401062;19;19923;-77
2023/08/02 10:03:41;;;;;;;6.38;2.65;;;;;;;16.35;86.64;99350.41;7401160;19;19927;-77
2023/08/02 10:06:11;;;;;;;6.40;2.92;;;;;;;16.44;86.83;99350.00;7399356;19;19926;-76
2023/08/02 10:08:43;;;;;;;7.30;2.80;;;;;;;16.54;86.60;99350.94;7401153;19;20722;-77
2023/08/02 10:11:12;;;;;;;4.97;2.80;;;;;;;16.66;86.81;99353.53;7400715;19;19918;-76
2023/08/02 10:13:44;;;;;;;7.65;2.55;;;;;;;16.80;86.46;99338.50;7398600;19;20356;-77
2023/08/02 10:16:16;;;;;;;5.75;2.60;;;;;;;16.89;85.94;99333.41;7400698;19;19925;-76
2023/08/02 10:18:49;;;;;;;6.10;2.83;;;;;;;16.91;86.13;99323.94;7401904;19;19923;-77
2023/08/02 10:21:19;;;;;;;4.88;3.05;;;;;;;16.95;85.71;99314.19;7401951;19;19948;-77
2023/08/02 10:23:49;;;;;;;6.85;2.92;;;;;;;16.98;86.19;99313.66;7401469;19;19930;-77
2023/08/02 10:26:18;;;;;;;9.00;2.67;;;;;;;17.02;85.74;99303.91;7400526;19;19930;-77
2023/08/02 10:28:48;;;;;;;7.82;2.78;;;;;;;17.03;86.39;99311.00;7401263;19;20293;-78
2023/08/02 10:31:17;;;;;;;5.03;3.58;;;;;;;16.99;85.92;99296.28;7399766;19;19943;-76
2023/08/02 10:33:48;;;;;;;4.93;2.70;;;;;;;17.02;86.60;99303.09;7398112;19;20625;-76
2023/08/02 10:36:17;;;;;;;4.90;2.65;;;;;;;17.03;86.72;99302.03;7399538;19;19926;-76
2023/08/02 10:38:55;;;;;;;5.95;2.83;;;;;;;17.00;86.72;99297.91;7400656;19;19930;-77
2023/08/02 10:41:27;;;;;;;6.22;2.90;;;;;;;16.99;86.85;99301.72;7399500;19;20566;-75
2023/08/02 10:44:15;;;;;;;4.05;2.80;;;;;;;16.91;86.63;99295.91;7401280;19;20590;-77
2023/08/02 10:46:44;;;;;;;5.30;2.25;;;;;;;16.94;87.12;99287.22;7397582;19;20294;-76
2023/08/02 10:49:41;;;;;;;4.32;2.20;;;;;;;16.87;87.41;99273.03;7398680;19;20796;-76
2023/08/02 10:52:28;;;;;;;4.38;2.50;;;;;;;16.89;87.79;99260.81;7398771;19;20357;-76
2023/08/02 10:55:06;;;;;;;4.95;2.63;;;;;;;16.98;87.58;99258.44;7400042;19;19915;-75
2023/08/02 10:57:35;;;;;;;5.90;2.15;;;;;;;17.03;87.02;99251.16;7399546;19;20280;-75
2023/08/02 11:00:23;;;;;;;4.75;2.30;;;;;;;16.99;87.86;99246.47;7399400;19;19947;-75
2023/08/02 11:02:53;;;;;;;3.60;2.30;;;;;;;17.02;87.45;99246.78;7398517;19;19929;-75
2023/08/02 11:05:46;;;;;;;4.57;2.33;;;;;;;16.96;88.20;99234.19;7398508;19;19933;-75
2023/08/02 11:08:16;;;;;;;5.35;2.38;;;;;;;16.98;87.82;99228.50;7399795;19;19926;-75
2023/08/02 11:10:55;;;;;;;2.47;1.63;;;;;;;16.93;87.84;99223.84;7399971;19;20334;-75
2023/08/02 11:13:25;;;;;;;2.85;1.63;;;;;;;16.94;87.92;99227.38;7396711;19;19926;-75
2023/08/02 11:16:05;;;;;;;5.00;1.90;;;;;;;16.95;88.27;99216.25;7399713;19;19926;-76
2023/08/02 11:18:34;;;;;;;3.05;1.65;;;;;;;17.03;87.96;99206.78;7398304;19;20365;-75
2023/08/02 11:21:20;;;;;;;6.25;1.92;;;;;;;17.03;88.50;99206.78;7398961;19;19974;-75
2023/08/02 11:23:49;;;;;;;2.85;1.60;;;;;;;17.11;87.92;99198.97;7398051;19;19925;-75
2023/08/02 11:26:20;;;;;;;2.28;1.40;;;;;;;17.13;87.55;99185.91;7399559;19;19954;-75
2023/08/02 11:28:52;;;;;;;2.58;1.50;;;;;;;17.16;88.03;99185.41;7398132;19;20357;-75
2023/08/02 11:31:24;;;;;;;3.30;1.50;;;;;;;17.21;87.98;99185.44;7399831;19;19923;-75
2023/08/02 11:33:54;;;;;;;3.13;2.00;;;;;;;17.21;88.06;99177.25;7397119;19;19925;-76
2023/08/02 11:36:25;;;;;;;2.22;1.40;;;;;;;17.17;88.16;99164.47;7396774;19;19918;-76
2023/08/02 11:38:54;;;;;;;2.47;1.48;;;;;;;17.14;88.04;99168.50;7398225;19;20337;-75
2023/08/02 11:41:24;;;;;;;2.30;1.23;;;;;;;17.14;87.84;99164.97;7399417;19;19959;-76
2023/08/02 11:43:53;;;;;;;2.58;1.48;;;;;;;17.16;88.30;99168.25;7398182;19;19926;-76
2023/08/02 11:46:25;;;;;;;2.53;1.33;;;;;;;17.20;88.04;99161.22;7396696;19;19923;-76